sensor_id;sensor_type;location;lat;lon;timestamp;P1;durP1;ratioP1;P2;durP2;ratioP2
83241;SDS011;73133;47.848;9.000;2023-12-14T04:04:13;2.20;;;2.00;;
83241;SDS011;73133;47.848;9.000;2023-12-14T04:06:38;2.25;;;2.05;;
83241;SDS011;73133;47.848;9.000;2023-12-14T04:09:04;2.70;;;2.50;;
83241;SDS011;73133;47.848;9.000;2023-12-14T04:11:29;4.68;;;3.00;;
83241;SDS011;73133;47.848;9.000;2023-12-14T04:13:55;3.08;;;2.78;;
83241;SDS011;73133;47.848;9.000;2023-12-14T04:16:20;2.60;;;2.38;;
83241;SDS011;73133;47.848;9.000;2023-12-14T04:18:46;3.50;;;2.72;;
83241;SDS011;73133;47.848;9.000;2023-12-14T04:21:12;2.78;;;2.58;;
83241;SDS011;73133;47.848;9.000;2023-12-14T04:23:37;3.42;;;2.80;;
83241;SDS011;73133;47.848;9.000;2023-12-14T04:26:02;2.42;;;2.22;;
83241;SDS011;73133;47.848;9.000;2023-12-14T04:28:28;2.13;;;1.88;;
83241;SDS011;73133;47.848;9.000;2023-12-14T04:30:53;2.65;;;2.45;;
83241;SDS011;73133;47.848;9.000;2023-12-14T04:33:19;2.30;;;2.10;;
83241;SDS011;73133;47.848;9.000;2023-12-14T04:35:44;1.63;;;1.50;;
83241;SDS011;73133;47.848;9.000;2023-12-14T04:38:09;1.95;;;1.85;;
83241;SDS011;73133;47.848;9.000;2023-12-14T04:40:35;2.22;;;2.05;;
83241;SDS011;73133;47.848;9.000;2023-12-14T04:43:00;2.40;;;2.17;;
83241;SDS011;73133;47.848;9.000;2023-12-14T04:45:26;1.98;;;1.88;;
83241;SDS011;73133;47.848;9.000;2023-12-14T04:47:51;2.33;;;2.13;;
83241;SDS011;73133;47.848;9.000;2023-12-14T04:50:16;7.30;;;2.10;;
83241;SDS011;73133;47.848;9.000;2023-12-14T04:52:42;2.30;;;2.10;;
83241;SDS011;73133;47.848;9.000;2023-12-14T04:55:10;2.00;;;1.90;;
83241;SDS011;73133;47.848;9.000;2023-12-14T04:57:35;2.65;;;2.45;;
83241;SDS011;73133;47.848;9.000;2023-12-14T05:00:01;2.47;;;2.28;;
83241;SDS011;73133;47.848;9.000;2023-12-14T05:02:27;2.65;;;2.45;;
83241;SDS011;73133;47.848;9.000;2023-12-14T05:04:53;2.72;;;2.10;;
83241;SDS011;73133;47.848;9.000;2023-12-14T05:07:18;3.33;;;3.00;;
83241;SDS011;73133;47.848;9.000;2023-12-14T05:09:44;2.78;;;2.58;;
83241;SDS011;73133;47.848;9.000;2023-12-14T05:12:09;2.60;;;2.40;;
83241;SDS011;73133;47.848;9.000;2023-12-14T05:14:34;2.78;;;2.58;;
83241;SDS011;73133;47.848;9.000;2023-12-14T05:17:00;3.33;;;3.03;;
83241;SDS011;73133;47.848;9.000;2023-12-14T05:19:25;4.83;;;3.57;;
83241;SDS011;73133;47.848;9.000;2023-12-14T05:21:50;5.07;;;3.83;;
83241;SDS011;73133;47.848;9.000;2023-12-14T05:24:16;3.40;;;2.75;;
83241;SDS011;73133;47.848;9.000;2023-12-14T05:26:41;3.43;;;3.13;;
83241;SDS011;73133;47.848;9.000;2023-12-14T05:29:07;3.57;;;3.27;;
83241;SDS011;73133;47.848;9.000;2023-12-14T05:31:32;4.05;;;2.92;;
83241;SDS011;73133;47.848;9.000;2023-12-14T05:33:58;5.60;;;2.77;;
83241;SDS011;73133;47.848;9.000;2023-12-14T05:36:23;3.50;;;3.20;;
83241;SDS011;73133;47.848;9.000;2023-12-14T05:38:48;2.80;;;2.60;;
83241;SDS011;73133;47.848;9.000;2023-12-14T05:41:14;2.92;;;2.67;;
83241;SDS011;73133;47.848;9.000;2023-12-14T05:43:40;2.58;;;2.40;;
83241;SDS011;73133;47.848;9.000;2023-12-14T05:46:06;2.78;;;2.33;;
83241;SDS011;73133;47.848;9.000;2023-12-14T05:48:31;3.17;;;2.57;;
83241;SDS011;73133;47.848;9.000;2023-12-14T05:50:56;2.70;;;2.50;;
83241;SDS011;73133;47.848;9.000;2023-12-14T05:53:22;3.72;;;3.33;;
83241;SDS011;73133;47.848;9.000;2023-12-14T05:55:48;3.35;;;3.10;;
83241;SDS011;73133;47.848;9.000;2023-12-14T05:58:13;3.63;;;3.33;;
83241;SDS011;73133;47.848;9.000;2023-12-14T06:00:38;4.05;;;3.65;;
83241;SDS011;73133;47.848;9.000;2023-12-14T06:03:04;3.72;;;3.35;;
83241;SDS011;73133;47.848;9.000;2023-12-14T06:05:30;7.80;;;3.80;;
83241;SDS011;73133;47.848;9.000;2023-12-14T06:07:56;3.72;;;3.42;;
83241;SDS011;73133;47.848;9.000;2023-12-14T06:10:21;3.15;;;2.75;;
83241;SDS011;73133;47.848;9.000;2023-12-14T06:12:47;2.90;;;2.67;;
83241;SDS011;73133;47.848;9.000;2023-12-14T06:15:12;3.17;;;2.97;;
83241;SDS011;73133;47.848;9.000;2023-12-14T06:17:38;3.20;;;2.90;;
83241;SDS011;73133;47.848;9.000;2023-12-14T06:20:05;3.20;;;2.90;;
83241;SDS011;73133;47.848;9.000;2023-12-14T06:22:38;3.75;;;3.45;;
83241;SDS011;73133;47.848;9.000;2023-12-14T06:25:04;3.38;;;3.08;;
83241;SDS011;73133;47.848;9.000;2023-12-14T06:27:29;3.53;;;3.22;;
83241;SDS011;73133;47.848;9.000;2023-12-14T06:29:55;3.38;;;2.97;;
83241;SDS011;73133;47.848;9.000;2023-12-14T06:32:20;5.15;;;3.35;;
83241;SDS011;73133;47.848;9.000;2023-12-14T06:34:46;5.75;;;3.35;;
83241;SDS011;73133;47.848;9.000;2023-12-14T06:37:11;3.70;;;3.45;;
83241;SDS011;73133;47.848;9.000;2023-12-14T06:39:37;6.28;;;3.50;;
83241;SDS011;73133;47.848;9.000;2023-12-14T06:42:02;5.40;;;3.75;;
83241;SDS011;73133;47.848;9.000;2023-12-14T06:44:28;4.50;;;4.10;;
83241;SDS011;73133;47.848;9.000;2023-12-14T06:46:55;3.45;;;3.15;;
83241;SDS011;73133;47.848;9.000;2023-12-14T06:49:21;3.90;;;3.50;;
83241;SDS011;73133;47.848;9.000;2023-12-14T06:51:46;6.63;;;4.00;;
83241;SDS011;73133;47.848;9.000;2023-12-14T06:54:11;4.00;;;3.58;;
83241;SDS011;73133;47.848;9.000;2023-12-14T06:56:37;4.88;;;4.40;;
83241;SDS011;73133;47.848;9.000;2023-12-14T06:59:02;4.15;;;3.50;;
83241;SDS011;73133;47.848;9.000;2023-12-14T07:01:28;4.03;;;3.13;;
83241;SDS011;73133;47.848;9.000;2023-12-14T07:03:53;4.13;;;3.72;;
83241;SDS011;73133;47.848;9.000;2023-12-14T07:06:18;4.10;;;3.70;;
83241;SDS011;73133;47.848;9.000;2023-12-14T07:08:44;4.07;;;3.78;;
83241;SDS011;73133;47.848;9.000;2023-12-14T07:11:11;6.63;;;3.95;;
83241;SDS011;73133;47.848;9.000;2023-12-14T07:13:37;3.80;;;3.50;;
83241;SDS011;73133;47.848;9.000;2023-12-14T07:16:06;4.28;;;3.78;;
83241;SDS011;73133;47.848;9.000;2023-12-14T07:18:33;4.30;;;3.90;;
83241;SDS011;73133;47.848;9.000;2023-12-14T07:21:02;4.40;;;4.00;;
83241;SDS011;73133;47.848;9.000;2023-12-14T07:25:53;4.50;;;4.10;;
83241;SDS011;73133;47.848;9.000;2023-12-14T07:28:19;4.30;;;3.97;;
83241;SDS011;73133;47.848;9.000;2023-12-14T07:30:45;7.22;;;4.28;;
83241;SDS011;73133;47.848;9.000;2023-12-14T07:35:37;4.13;;;3.72;;
83241;SDS011;73133;47.848;9.000;2023-12-14T07:38:02;5.25;;;3.20;;
83241;SDS011;73133;47.848;9.000;2023-12-14T07:40:27;4.43;;;3.90;;
83241;SDS011;73133;47.848;9.000;2023-12-14T07:42:54;4.13;;;3.65;;
83241;SDS011;73133;47.848;9.000;2023-12-14T07:45:19;3.63;;;3.33;;
83241;SDS011;73133;47.848;9.000;2023-12-14T07:47:45;5.45;;;4.05;;
83241;SDS011;73133;47.848;9.000;2023-12-14T07:52:37;3.60;;;3.30;;
83241;SDS011;73133;47.848;9.000;2023-12-14T07:55:02;3.53;;;3.22;;
83241;SDS011;73133;47.848;9.000;2023-12-14T07:57:28;4.53;;;4.18;;
83241;SDS011;73133;47.848;9.000;2023-12-14T07:59:53;4.83;;;4.33;;
83241;SDS011;73133;47.848;9.000;2023-12-14T08:02:19;5.00;;;4.57;;
83241;SDS011;73133;47.848;9.000;2023-12-14T08:04:44;4.22;;;3.83;;
83241;SDS011;73133;47.848;9.000;2023-12-14T08:07:10;4.90;;;4.43;;
83241;SDS011;73133;47.848;9.000;2023-12-14T08:09:35;4.30;;;4.00;;
83241;SDS011;73133;47.848;9.000;2023-12-14T08:12:00;8.43;;;4.17;;
83241;SDS011;73133;47.848;9.000;2023-12-14T08:14:26;4.32;;;4.00;;
83241;SDS011;73133;47.848;9.000;2023-12-14T08:16:51;3.45;;;3.15;;
83241;SDS011;73133;47.848;9.000;2023-12-14T08:19:17;5.07;;;4.22;;
83241;SDS011;73133;47.848;9.000;2023-12-14T08:21:42;4.20;;;3.80;;
83241;SDS011;73133;47.848;9.000;2023-12-14T08:24:07;9.00;;;4.17;;
83241;SDS011;73133;47.848;9.000;2023-12-14T08:26:33;3.83;;;3.53;;
83241;SDS011;73133;47.848;9.000;2023-12-14T08:28:58;4.07;;;3.67;;
83241;SDS011;73133;47.848;9.000;2023-12-14T08:31:24;4.03;;;3.72;;
83241;SDS011;73133;47.848;9.000;2023-12-14T08:33:49;4.18;;;3.78;;
83241;SDS011;73133;47.848;9.000;2023-12-14T08:36:15;4.10;;;3.80;;
83241;SDS011;73133;47.848;9.000;2023-12-14T08:38:41;4.53;;;4.22;;
83241;SDS011;73133;47.848;9.000;2023-12-14T08:41:07;4.10;;;3.50;;
83241;SDS011;73133;47.848;9.000;2023-12-14T08:43:32;4.37;;;4.00;;
83241;SDS011;73133;47.848;9.000;2023-12-14T08:45:58;3.73;;;3.10;;
83241;SDS011;73133;47.848;9.000;2023-12-14T08:48:23;3.95;;;3.65;;
83241;SDS011;73133;47.848;9.000;2023-12-14T08:50:48;3.92;;;3.63;;
83241;SDS011;73133;47.848;9.000;2023-12-14T08:53:14;3.70;;;3.40;;
83241;SDS011;73133;47.848;9.000;2023-12-14T08:55:39;3.75;;;3.45;;
83241;SDS011;73133;47.848;9.000;2023-12-14T08:58:05;3.05;;;2.85;;
83241;SDS011;73133;47.848;9.000;2023-12-14T09:00:30;3.13;;;2.83;;
83241;SDS011;73133;47.848;9.000;2023-12-14T09:02:55;3.20;;;2.93;;
83241;SDS011;73133;47.848;9.000;2023-12-14T09:05:21;3.13;;;2.92;;
83241;SDS011;73133;47.848;9.000;2023-12-14T09:07:46;2.63;;;2.42;;
83241;SDS011;73133;47.848;9.000;2023-12-14T09:10:12;3.33;;;2.83;;
83241;SDS011;73133;47.848;9.000;2023-12-14T09:12:37;2.97;;;2.72;;
83241;SDS011;73133;47.848;9.000;2023-12-14T09:15:03;3.25;;;2.95;;
83241;SDS011;73133;47.848;9.000;2023-12-14T09:17:29;7.80;;;2.97;;
83241;SDS011;73133;47.848;9.000;2023-12-14T09:20:00;3.17;;;2.88;;
83241;SDS011;73133;47.848;9.000;2023-12-14T09:22:27;4.10;;;3.80;;
83241;SDS011;73133;47.848;9.000;2023-12-14T09:24:52;3.17;;;2.87;;
83241;SDS011;73133;47.848;9.000;2023-12-14T09:27:18;3.05;;;2.85;;
83241;SDS011;73133;47.848;9.000;2023-12-14T09:29:43;5.43;;;2.70;;
83241;SDS011;73133;47.848;9.000;2023-12-14T09:32:09;4.50;;;3.42;;
83241;SDS011;73133;47.848;9.000;2023-12-14T09:34:35;3.50;;;3.20;;
83241;SDS011;73133;47.848;9.000;2023-12-14T09:37:00;3.58;;;2.80;;
83241;SDS011;73133;47.848;9.000;2023-12-14T09:39:26;3.28;;;2.88;;
83241;SDS011;73133;47.848;9.000;2023-12-14T09:41:53;2.92;;;2.53;;
83241;SDS011;73133;47.848;9.000;2023-12-14T09:44:29;1.90;;;1.80;;
83241;SDS011;73133;47.848;9.000;2023-12-14T09:46:54;2.50;;;2.30;;
83241;SDS011;73133;47.848;9.000;2023-12-14T09:49:20;1.90;;;1.80;;
83241;SDS011;73133;47.848;9.000;2023-12-14T09:51:48;2.45;;;2.25;;
83241;SDS011;73133;47.848;9.000;2023-12-14T09:54:14;2.40;;;2.20;;
83241;SDS011;73133;47.848;9.000;2023-12-14T09:56:48;1.85;;;1.75;;
83241;SDS011;73133;47.848;9.000;2023-12-14T09:59:14;2.05;;;1.33;;
83241;SDS011;73133;47.848;9.000;2023-12-14T10:01:40;2.20;;;1.98;;
83241;SDS011;73133;47.848;9.000;2023-12-14T10:04:07;1.80;;;1.70;;
83241;SDS011;73133;47.848;9.000;2023-12-14T10:06:40;1.80;;;1.70;;
83241;SDS011;73133;47.848;9.000;2023-12-14T10:09:07;2.15;;;1.95;;
83241;SDS011;73133;47.848;9.000;2023-12-14T10:11:40;1.80;;;1.70;;
83241;SDS011;73133;47.848;9.000;2023-12-14T10:14:17;1.95;;;1.85;;
83241;SDS011;73133;47.848;9.000;2023-12-14T10:16:42;3.30;;;1.52;;
83241;SDS011;73133;47.848;9.000;2023-12-14T10:19:08;1.52;;;1.42;;
83241;SDS011;73133;47.848;9.000;2023-12-14T10:23:59;1.02;;;0.93;;
83241;SDS011;73133;47.848;9.000;2023-12-14T10:26:25;1.52;;;1.23;;
83241;SDS011;73133;47.848;9.000;2023-12-14T10:28:51;2.35;;;1.27;;
83241;SDS011;73133;47.848;9.000;2023-12-14T10:31:18;1.42;;;1.27;;
83241;SDS011;73133;47.848;9.000;2023-12-14T10:33:47;1.20;;;1.10;;
83241;SDS011;73133;47.848;9.000;2023-12-14T10:36:13;2.03;;;1.55;;
83241;SDS011;73133;47.848;9.000;2023-12-14T10:38:40;4.30;;;3.90;;
83241;SDS011;73133;47.848;9.000;2023-12-14T10:41:08;1.52;;;1.42;;
83241;SDS011;73133;47.848;9.000;2023-12-14T10:43:36;1.73;;;1.60;;
83241;SDS011;73133;47.848;9.000;2023-12-14T10:46:03;2.05;;;1.80;;
83241;SDS011;73133;47.848;9.000;2023-12-14T10:48:32;1.35;;;1.00;;
83241;SDS011;73133;47.848;9.000;2023-12-14T10:51:00;3.83;;;2.22;;
83241;SDS011;73133;47.848;9.000;2023-12-14T10:53:27;5.63;;;2.38;;
83241;SDS011;73133;47.848;9.000;2023-12-14T10:55:53;2.22;;;2.03;;
83241;SDS011;73133;47.848;9.000;2023-12-14T10:58:21;3.65;;;2.30;;
83241;SDS011;73133;47.848;9.000;2023-12-14T11:00:59;4.78;;;2.35;;
83241;SDS011;73133;47.848;9.000;2023-12-14T11:03:34;1.73;;;1.63;;
83241;SDS011;73133;47.848;9.000;2023-12-14T11:06:01;9.35;;;1.98;;
83241;SDS011;73133;47.848;9.000;2023-12-14T11:08:26;1.98;;;1.88;;
83241;SDS011;73133;47.848;9.000;2023-12-14T11:10:59;2.22;;;2.03;;
83241;SDS011;73133;47.848;9.000;2023-12-14T11:13:35;4.13;;;2.20;;
83241;SDS011;73133;47.848;9.000;2023-12-14T11:18:27;2.23;;;2.00;;
83241;SDS011;73133;47.848;9.000;2023-12-14T11:20:59;2.42;;;2.08;;
83241;SDS011;73133;47.848;9.000;2023-12-14T11:25:51;2.17;;;1.80;;
83241;SDS011;73133;47.848;9.000;2023-12-14T11:28:18;1.90;;;1.73;;
83241;SDS011;73133;47.848;9.000;2023-12-14T11:30:44;1.98;;;1.85;;
83241;SDS011;73133;47.848;9.000;2023-12-14T11:33:14;2.05;;;1.77;;
83241;SDS011;73133;47.848;9.000;2023-12-14T11:35:40;2.28;;;2.05;;
83241;SDS011;73133;47.848;9.000;2023-12-14T11:38:06;1.92;;;1.70;;
83241;SDS011;73133;47.848;9.000;2023-12-14T11:40:44;6.20;;;2.72;;
83241;SDS011;73133;47.848;9.000;2023-12-14T11:43:09;2.00;;;1.85;;
83241;SDS011;73133;47.848;9.000;2023-12-14T11:45:35;2.33;;;1.85;;
83241;SDS011;73133;47.848;9.000;2023-12-14T11:48:06;2.45;;;1.77;;
83241;SDS011;73133;47.848;9.000;2023-12-14T11:50:35;3.88;;;2.13;;
83241;SDS011;73133;47.848;9.000;2023-12-14T11:53:01;5.50;;;2.50;;
83241;SDS011;73133;47.848;9.000;2023-12-14T11:55:28;3.10;;;2.53;;
83241;SDS011;73133;47.848;9.000;2023-12-14T11:57:54;3.15;;;2.17;;
83241;SDS011;73133;47.848;9.000;2023-12-14T12:00:23;2.30;;;2.10;;
83241;SDS011;73133;47.848;9.000;2023-12-14T12:02:49;3.33;;;2.58;;
83241;SDS011;73133;47.848;9.000;2023-12-14T12:05:15;1.90;;;1.63;;
83241;SDS011;73133;47.848;9.000;2023-12-14T12:07:43;1.90;;;1.80;;
83241;SDS011;73133;47.848;9.000;2023-12-14T12:10:09;1.40;;;1.30;;
83241;SDS011;73133;47.848;9.000;2023-12-14T12:12:35;4.00;;;1.58;;
83241;SDS011;73133;47.848;9.000;2023-12-14T12:15:01;1.77;;;1.20;;
83241;SDS011;73133;47.848;9.000;2023-12-14T12:17:26;1.58;;;1.42;;
83241;SDS011;73133;47.848;9.000;2023-12-14T12:19:52;1.40;;;1.20;;
83241;SDS011;73133;47.848;9.000;2023-12-14T12:22:17;2.05;;;1.50;;
83241;SDS011;73133;47.848;9.000;2023-12-14T12:24:45;1.35;;;1.20;;
83241;SDS011;73133;47.848;9.000;2023-12-14T12:27:10;1.95;;;1.25;;
83241;SDS011;73133;47.848;9.000;2023-12-14T12:29:35;1.60;;;1.20;;
83241;SDS011;73133;47.848;9.000;2023-12-14T12:32:01;4.88;;;1.70;;
83241;SDS011;73133;47.848;9.000;2023-12-14T12:34:26;1.23;;;1.13;;
83241;SDS011;73133;47.848;9.000;2023-12-14T12:36:51;2.00;;;1.30;;
83241;SDS011;73133;47.848;9.000;2023-12-14T12:39:17;1.13;;;1.08;;
83241;SDS011;73133;47.848;9.000;2023-12-14T12:41:43;2.63;;;0.98;;
83241;SDS011;73133;47.848;9.000;2023-12-14T12:44:13;1.30;;;1.20;;
83241;SDS011;73133;47.848;9.000;2023-12-14T12:46:38;1.77;;;1.10;;
83241;SDS011;73133;47.848;9.000;2023-12-14T12:49:04;2.25;;;1.58;;
83241;SDS011;73133;47.848;9.000;2023-12-14T12:51:30;2.05;;;1.27;;
83241;SDS011;73133;47.848;9.000;2023-12-14T12:53:57;1.75;;;1.50;;
83241;SDS011;73133;47.848;9.000;2023-12-14T12:56:23;2.85;;;1.60;;
83241;SDS011;73133;47.848;9.000;2023-12-14T12:58:50;2.10;;;1.42;;
83241;SDS011;73133;47.848;9.000;2023-12-14T13:01:18;4.45;;;4.05;;
83241;SDS011;73133;47.848;9.000;2023-12-14T13:03:44;5.88;;;5.38;;
83241;SDS011;73133;47.848;9.000;2023-12-14T13:06:09;2.70;;;2.50;;
83241;SDS011;73133;47.848;9.000;2023-12-14T13:08:34;2.03;;;1.93;;
83241;SDS011;73133;47.848;9.000;2023-12-14T13:11:00;2.03;;;1.77;;
83241;SDS011;73133;47.848;9.000;2023-12-14T13:13:25;1.60;;;1.50;;
83241;SDS011;73133;47.848;9.000;2023-12-14T13:18:17;2.80;;;1.77;;
83241;SDS011;73133;47.848;9.000;2023-12-14T13:20:43;2.05;;;1.67;;
83241;SDS011;73133;47.848;9.000;2023-12-14T13:23:09;1.67;;;1.52;;
83241;SDS011;73133;47.848;9.000;2023-12-14T13:25:34;3.85;;;2.78;;
83241;SDS011;73133;47.848;9.000;2023-12-14T13:28:00;2.42;;;1.23;;
83241;SDS011;73133;47.848;9.000;2023-12-14T13:30:25;1.92;;;1.73;;
83241;SDS011;73133;47.848;9.000;2023-12-14T13:32:51;4.20;;;1.80;;
83241;SDS011;73133;47.848;9.000;2023-12-14T13:35:18;1.70;;;1.17;;
83241;SDS011;73133;47.848;9.000;2023-12-14T13:37:44;4.85;;;3.63;;
83241;SDS011;73133;47.848;9.000;2023-12-14T13:40:09;7.33;;;6.60;;
83241;SDS011;73133;47.848;9.000;2023-12-14T13:42:35;7.82;;;7.03;;
83241;SDS011;73133;47.848;9.000;2023-12-14T13:45:00;2.60;;;2.40;;
83241;SDS011;73133;47.848;9.000;2023-12-14T13:47:26;1.90;;;1.73;;
83241;SDS011;73133;47.848;9.000;2023-12-14T13:49:51;1.88;;;1.70;;
83241;SDS011;73133;47.848;9.000;2023-12-14T13:52:18;2.30;;;2.10;;
83241;SDS011;73133;47.848;9.000;2023-12-14T13:54:43;3.92;;;2.25;;
83241;SDS011;73133;47.848;9.000;2023-12-14T13:57:08;2.30;;;2.10;;
83241;SDS011;73133;47.848;9.000;2023-12-14T13:59:34;2.07;;;1.67;;
83241;SDS011;73133;47.848;9.000;2023-12-14T14:01:59;2.45;;;1.52;;
83241;SDS011;73133;47.848;9.000;2023-12-14T14:04:24;4.37;;;1.70;;
83241;SDS011;73133;47.848;9.000;2023-12-14T14:06:50;2.03;;;1.55;;
83241;SDS011;73133;47.848;9.000;2023-12-14T14:09:15;4.83;;;1.63;;
83241;SDS011;73133;47.848;9.000;2023-12-14T14:11:40;1.70;;;1.60;;
83241;SDS011;73133;47.848;9.000;2023-12-14T14:14:12;2.75;;;1.75;;
83241;SDS011;73133;47.848;9.000;2023-12-14T14:16:37;1.70;;;1.60;;
83241;SDS011;73133;47.848;9.000;2023-12-14T14:19:03;1.50;;;1.40;;
83241;SDS011;73133;47.848;9.000;2023-12-14T14:21:28;1.27;;;1.17;;
83241;SDS011;73133;47.848;9.000;2023-12-14T14:23:54;1.15;;;1.00;;
83241;SDS011;73133;47.848;9.000;2023-12-14T14:26:19;1.67;;;0.90;;
83241;SDS011;73133;47.848;9.000;2023-12-14T14:28:45;0.98;;;0.88;;
83241;SDS011;73133;47.848;9.000;2023-12-14T14:31:10;0.98;;;0.80;;
83241;SDS011;73133;47.848;9.000;2023-12-14T14:33:36;3.45;;;2.05;;
83241;SDS011;73133;47.848;9.000;2023-12-14T14:36:01;1.33;;;1.05;;
83241;SDS011;73133;47.848;9.000;2023-12-14T14:38:30;1.60;;;1.23;;
83241;SDS011;73133;47.848;9.000;2023-12-14T14:40:55;1.38;;;1.27;;
83241;SDS011;73133;47.848;9.000;2023-12-14T14:43:21;2.83;;;0.90;;
83241;SDS011;73133;47.848;9.000;2023-12-14T14:45:47;1.40;;;1.00;;
83241;SDS011;73133;47.848;9.000;2023-12-14T14:48:13;1.38;;;1.05;;
83241;SDS011;73133;47.848;9.000;2023-12-14T14:50:38;3.40;;;1.00;;
83241;SDS011;73133;47.848;9.000;2023-12-14T14:53:04;0.90;;;0.60;;
83241;SDS011;73133;47.848;9.000;2023-12-14T14:55:29;0.68;;;0.50;;
83241;SDS011;73133;47.848;9.000;2023-12-14T14:57:55;2.75;;;0.50;;
83241;SDS011;73133;47.848;9.000;2023-12-14T15:00:21;1.05;;;1.05;;
83241;SDS011;73133;47.848;9.000;2023-12-14T15:02:46;0.70;;;0.50;;
83241;SDS011;73133;47.848;9.000;2023-12-14T15:05:12;1.13;;;0.70;;
83241;SDS011;73133;47.848;9.000;2023-12-14T15:07:37;1.73;;;0.55;;
83241;SDS011;73133;47.848;9.000;2023-12-14T15:10:03;0.63;;;0.60;;
83241;SDS011;73133;47.848;9.000;2023-12-14T15:12:29;0.60;;;0.60;;
83241;SDS011;73133;47.848;9.000;2023-12-14T15:14:54;0.57;;;0.57;;
83241;SDS011;73133;47.848;9.000;2023-12-14T15:17:21;1.48;;;0.77;;
83241;SDS011;73133;47.848;9.000;2023-12-14T15:19:47;0.82;;;0.57;;
83241;SDS011;73133;47.848;9.000;2023-12-14T15:22:13;1.02;;;0.60;;
83241;SDS011;73133;47.848;9.000;2023-12-14T15:24:39;0.50;;;0.50;;
83241;SDS011;73133;47.848;9.000;2023-12-14T15:27:04;1.00;;;0.60;;
83241;SDS011;73133;47.848;9.000;2023-12-14T15:29:30;0.65;;;0.52;;
83241;SDS011;73133;47.848;9.000;2023-12-14T15:31:55;2.70;;;1.25;;
83241;SDS011;73133;47.848;9.000;2023-12-14T15:34:21;2.95;;;2.22;;
83241;SDS011;73133;47.848;9.000;2023-12-14T15:36:46;1.77;;;1.40;;
83241;SDS011;73133;47.848;9.000;2023-12-14T15:39:11;1.60;;;1.50;;
83241;SDS011;73133;47.848;9.000;2023-12-14T15:41:37;1.25;;;1.15;;
83241;SDS011;73133;47.848;9.000;2023-12-14T15:44:02;1.60;;;1.17;;
83241;SDS011;73133;47.848;9.000;2023-12-14T15:46:28;1.08;;;1.00;;
83241;SDS011;73133;47.848;9.000;2023-12-14T15:48:54;2.95;;;1.23;;
83241;SDS011;73133;47.848;9.000;2023-12-14T15:51:19;9.82;;;1.77;;
83241;SDS011;73133;47.848;9.000;2023-12-14T15:53:45;1.42;;;1.27;;
83241;SDS011;73133;47.848;9.000;2023-12-14T15:56:10;4.50;;;1.67;;
83241;SDS011;73133;47.848;9.000;2023-12-14T15:58:35;2.17;;;1.20;;
83241;SDS011;73133;47.848;9.000;2023-12-14T16:01:01;2.50;;;1.53;;
83241;SDS011;73133;47.848;9.000;2023-12-14T16:03:26;1.65;;;1.52;;
83241;SDS011;73133;47.848;9.000;2023-12-14T16:05:51;7.20;;;1.43;;
83241;SDS011;73133;47.848;9.000;2023-12-14T16:08:17;2.70;;;1.90;;
83241;SDS011;73133;47.848;9.000;2023-12-14T16:10:42;3.03;;;1.30;;
83241;SDS011;73133;47.848;9.000;2023-12-14T16:13:10;1.73;;;1.55;;
83241;SDS011;73133;47.848;9.000;2023-12-14T16:15:35;2.22;;;1.67;;
83241;SDS011;73133;47.848;9.000;2023-12-14T16:18:01;8.68;;;2.00;;
83241;SDS011;73133;47.848;9.000;2023-12-14T16:20:26;2.85;;;1.90;;
83241;SDS011;73133;47.848;9.000;2023-12-14T16:22:52;2.20;;;1.30;;
83241;SDS011;73133;47.848;9.000;2023-12-14T16:27:44;2.70;;;1.15;;
83241;SDS011;73133;47.848;9.000;2023-12-14T16:30:11;1.60;;;1.48;;
83241;SDS011;73133;47.848;9.000;2023-12-14T16:32:37;1.90;;;1.30;;
83241;SDS011;73133;47.848;9.000;2023-12-14T16:35:03;4.50;;;1.80;;
83241;SDS011;73133;47.848;9.000;2023-12-14T16:37:28;4.03;;;2.35;;
83241;SDS011;73133;47.848;9.000;2023-12-14T16:39:56;2.05;;;1.70;;
83241;SDS011;73133;47.848;9.000;2023-12-14T16:42:22;2.58;;;1.17;;
83241;SDS011;73133;47.848;9.000;2023-12-14T16:44:47;2.45;;;1.52;;
83241;SDS011;73133;47.848;9.000;2023-12-14T16:47:13;3.13;;;1.73;;
83241;SDS011;73133;47.848;9.000;2023-12-14T16:49:38;1.38;;;1.27;;
83241;SDS011;73133;47.848;9.000;2023-12-14T16:52:07;4.75;;;1.92;;
83241;SDS011;73133;47.848;9.000;2023-12-14T16:54:33;2.20;;;2.00;;
83241;SDS011;73133;47.848;9.000;2023-12-14T16:56:58;2.28;;;2.05;;
83241;SDS011;73133;47.848;9.000;2023-12-14T16:59:24;2.30;;;1.90;;
83241;SDS011;73133;47.848;9.000;2023-12-14T17:01:50;2.00;;;1.52;;
83241;SDS011;73133;47.848;9.000;2023-12-14T17:04:15;3.10;;;1.83;;
83241;SDS011;73133;47.848;9.000;2023-12-14T17:06:41;1.92;;;1.42;;
83241;SDS011;73133;47.848;9.000;2023-12-14T17:09:07;1.10;;;1.00;;
83241;SDS011;73133;47.848;9.000;2023-12-14T17:11:32;1.75;;;1.15;;
83241;SDS011;73133;47.848;9.000;2023-12-14T17:13:58;1.30;;;1.20;;
83241;SDS011;73133;47.848;9.000;2023-12-14T17:16:23;1.87;;;1.37;;
83241;SDS011;73133;47.848;9.000;2023-12-14T17:18:49;1.67;;;1.58;;
83241;SDS011;73133;47.848;9.000;2023-12-14T17:21:18;2.28;;;1.55;;
83241;SDS011;73133;47.848;9.000;2023-12-14T17:23:49;2.15;;;1.40;;
83241;SDS011;73133;47.848;9.000;2023-12-14T17:26:15;1.60;;;1.00;;
83241;SDS011;73133;47.848;9.000;2023-12-14T17:28:44;1.98;;;1.60;;
83241;SDS011;73133;47.848;9.000;2023-12-14T17:31:11;1.80;;;1.48;;
83241;SDS011;73133;47.848;9.000;2023-12-14T17:33:37;2.10;;;1.63;;
83241;SDS011;73133;47.848;9.000;2023-12-14T17:36:03;1.52;;;1.02;;
83241;SDS011;73133;47.848;9.000;2023-12-14T17:38:28;2.25;;;0.90;;
83241;SDS011;73133;47.848;9.000;2023-12-14T17:40:53;1.83;;;1.47;;
83241;SDS011;73133;47.848;9.000;2023-12-14T17:43:19;2.67;;;1.03;;
83241;SDS011;73133;47.848;9.000;2023-12-14T17:45:44;1.37;;;1.27;;
83241;SDS011;73133;47.848;9.000;2023-12-14T17:48:09;2.55;;;1.48;;
83241;SDS011;73133;47.848;9.000;2023-12-14T17:50:35;2.00;;;1.55;;
83241;SDS011;73133;47.848;9.000;2023-12-14T17:53:00;1.90;;;1.70;;
83241;SDS011;73133;47.848;9.000;2023-12-14T17:55:26;3.42;;;1.77;;
83241;SDS011;73133;47.848;9.000;2023-12-14T17:57:51;2.50;;;2.30;;
83241;SDS011;73133;47.848;9.000;2023-12-14T18:00:17;3.97;;;1.73;;
83241;SDS011;73133;47.848;9.000;2023-12-14T18:02:42;1.40;;;1.30;;
83241;SDS011;73133;47.848;9.000;2023-12-14T18:05:08;3.03;;;2.00;;
83241;SDS011;73133;47.848;9.000;2023-12-14T18:07:33;3.78;;;1.88;;
83241;SDS011;73133;47.848;9.000;2023-12-14T18:09:59;2.45;;;1.50;;
83241;SDS011;73133;47.848;9.000;2023-12-14T18:12:24;4.55;;;1.77;;
83241;SDS011;73133;47.848;9.000;2023-12-14T18:14:49;1.90;;;1.47;;
83241;SDS011;73133;47.848;9.000;2023-12-14T18:17:15;1.70;;;1.60;;
83241;SDS011;73133;47.848;9.000;2023-12-14T18:19:40;1.50;;;1.40;;
83241;SDS011;73133;47.848;9.000;2023-12-14T18:22:06;2.00;;;1.20;;
83241;SDS011;73133;47.848;9.000;2023-12-14T18:24:31;1.02;;;0.93;;
83241;SDS011;73133;47.848;9.000;2023-12-14T18:26:57;1.90;;;1.75;;
83241;SDS011;73133;47.848;9.000;2023-12-14T18:29:22;2.08;;;1.58;;
83241;SDS011;73133;47.848;9.000;2023-12-14T18:31:48;1.60;;;1.50;;
83241;SDS011;73133;47.848;9.000;2023-12-14T18:34:13;1.67;;;1.58;;
83241;SDS011;73133;47.848;9.000;2023-12-14T18:36:38;1.73;;;1.42;;
83241;SDS011;73133;47.848;9.000;2023-12-14T18:39:04;2.10;;;1.30;;
83241;SDS011;73133;47.848;9.000;2023-12-14T18:41:29;1.20;;;1.10;;
83241;SDS011;73133;47.848;9.000;2023-12-14T18:43:55;1.30;;;1.20;;
83241;SDS011;73133;47.848;9.000;2023-12-14T18:46:20;2.25;;;1.52;;
83241;SDS011;73133;47.848;9.000;2023-12-14T18:48:46;1.77;;;1.60;;
83241;SDS011;73133;47.848;9.000;2023-12-14T18:51:11;5.82;;;2.15;;
83241;SDS011;73133;47.848;9.000;2023-12-14T18:53:37;3.45;;;2.10;;
83241;SDS011;73133;47.848;9.000;2023-12-14T18:56:02;2.65;;;2.00;;
83241;SDS011;73133;47.848;9.000;2023-12-14T18:58:27;3.10;;;2.80;;
83241;SDS011;73133;47.848;9.000;2023-12-14T19:00:53;3.00;;;2.50;;
83241;SDS011;73133;47.848;9.000;2023-12-14T19:03:18;2.90;;;2.65;;